Time;durP1;ratioP1;P1;durP2;ratioP2;P2;SDS_P1;SDS_P2;PMS_P1;PMS_P2;Temp;Humidity;BMP_temperature;BMP_pressure;BME280_temperature;BME280_humidity;BME280_pressure;Samples;Min_cycle;Max_cycle;Signal;HPM_P1;HPM_P2
2021/08/13 00:02:31;;;;;;;9.47;3.37;;;;;;;14.51;68.94;100887.41;126699;1093;27544;-76
2021/08/13 00:05:02;;;;;;;11.35;3.40;;;;;;;14.47;69.14;100875.61;126564;1092;22763;-77
2021/08/13 00:07:37;;;;;;;13.95;3.90;;;;;;;14.45;69.31;100886.57;126582;1093;23268;-78
2021/08/13 00:10:10;;;;;;;9.10;3.40;;;;;;;14.44;69.09;100882.20;126505;1093;26740;-76
2021/08/13 00:12:41;;;;;;;13.10;3.43;;;;;;;14.44;69.03;100879.39;126570;1093;22787;-76
2021/08/13 00:15:13;;;;;;;12.27;3.90;;;;;;;14.45;69.44;100894.22;126582;1093;22818;-77
2021/08/13 00:17:44;;;;;;;10.93;2.77;;;;;;;14.44;69.45;100896.25;126554;1093;22841;-76
2021/08/13 00:20:17;;;;;;;13.00;4.05;;;;;;;14.41;69.51;100897.24;126554;1093;23638;-77
2021/08/13 00:22:49;;;;;;;12.30;3.45;;;;;;;14.38;69.95;100889.78;126750;1093;22793;-77
2021/08/13 00:25:22;;;;;;;8.47;3.27;;;;;;;14.33;69.68;100896.11;126551;1093;22857;-77
2021/08/13 00:27:53;;;;;;;11.75;3.85;;;;;;;14.31;69.94;100892.23;126550;1093;22878;-77
2021/08/13 00:30:25;;;;;;;10.13;3.40;;;;;;;14.29;69.87;100889.15;126595;1093;22760;-77
2021/08/13 00:32:56;;;;;;;8.43;2.97;;;;;;;14.23;70.04;100882.65;126532;1093;22867;-76
2021/08/13 00:35:28;;;;;;;9.53;3.37;;;;;;;14.23;69.68;100879.84;126525;1093;22841;-78
2021/08/13 00:37:59;;;;;;;9.25;3.10;;;;;;;14.21;69.89;100879.56;126534;1092;23620;-78
2021/08/13 00:40:30;;;;;;;12.20;3.40;;;;;;;14.17;70.13;100879.77;126529;1093;25871;-77
2021/08/13 00:43:02;;;;;;;9.15;2.90;;;;;;;14.13;70.31;100870.75;126543;1093;25989;-78
2021/08/13 00:45:34;;;;;;;10.95;3.10;;;;;;;14.10;70.48;100877.36;126551;1093;22870;-77
2021/08/13 00:48:06;;;;;;;9.00;3.05;;;;;;;14.07;70.60;100872.70;126521;1093;23042;-77
2021/08/13 00:50:39;;;;;;;9.15;3.20;;;;;;;14.05;70.08;100874.48;126577;1093;22838;-77
2021/08/13 00:53:13;;;;;;;7.87;3.07;;;;;;;14.03;70.32;100874.20;126614;1093;27358;-76
2021/08/13 00:55:44;;;;;;;10.10;3.20;;;;;;;14.01;70.25;100871.10;126501;1093;22803;-78
2021/08/13 00:58:16;;;;;;;9.10;3.47;;;;;;;13.98;70.60;100860.83;126556;1093;22844;-76
2021/08/13 01:00:48;;;;;;;11.10;3.85;;;;;;;13.97;70.71;100873.31;126541;1093;22836;-76
2021/08/13 01:03:19;;;;;;;10.85;3.40;;;;;;;13.95;70.15;100873.02;126605;1093;25928;-76
2021/08/13 01:05:51;;;;;;;17.10;4.25;;;;;;;13.93;70.80;100865.09;126507;1093;25954;-77
2021/08/13 01:08:22;;;;;;;10.60;3.60;;;;;;;13.90;70.34;100871.70;126589;1093;22932;-76
2021/08/13 01:11:01;;;;;;;14.70;3.70;;;;;;;13.86;70.66;100864.73;126454;1093;23305;-76
2021/08/13 01:13:46;;;;;;;11.30;3.75;;;;;;;13.79;70.71;100861.07;126480;1093;27211;-76
2021/08/13 01:16:21;;;;;;;14.43;4.07;;;;;;;13.76;70.93;100862.03;126586;1092;22898;-76
2021/08/13 01:19:01;;;;;;;11.27;3.30;;;;;;;13.76;70.49;100866.86;126571;1092;23452;-77
2021/08/13 01:21:45;;;;;;;14.13;4.68;;;;;;;13.77;71.09;100865.61;126623;1093;27210;-76
2021/08/13 01:24:21;;;;;;;8.93;3.10;;;;;;;13.77;70.79;100857.20;126517;1092;24432;-76
2021/08/13 01:26:58;;;;;;;11.17;3.73;;;;;;;13.75;71.24;100856.91;126597;1092;22783;-77
2021/08/13 01:29:40;;;;;;;10.35;3.65;;;;;;;13.74;71.35;100849.73;126544;1093;26268;-77
2021/08/13 01:32:38;;;;;;;12.80;3.45;;;;;;;13.71;71.35;100859.14;126652;1093;22771;-77
2021/08/13 01:35:12;;;;;;;9.10;3.13;;;;;;;13.66;71.26;100860.59;126550;1092;22873;-76
2021/08/13 01:37:48;;;;;;;11.10;4.33;;;;;;;13.64;71.51;100859.53;126642;1093;22812;-76
2021/08/13 01:40:21;;;;;;;9.95;3.25;;;;;;;13.60;71.70;100851.31;126645;1093;22821;-76
2021/08/13 01:42:54;;;;;;;8.70;3.15;;;;;;;13.57;71.44;100854.33;126542;1093;22810;-77
2021/08/13 01:45:30;;;;;;;12.35;4.15;;;;;;;13.53;71.64;100856.55;126618;1093;22805;-77
2021/08/13 01:48:06;;;;;;;12.60;4.57;;;;;;;13.48;71.88;100855.20;126539;1092;27441;-77
2021/08/13 01:50:42;;;;;;;11.87;3.67;;;;;;;13.46;71.92;100860.52;126524;1093;26248;-77
2021/08/13 01:53:15;;;;;;;12.50;3.95;;;;;;;13.45;71.45;100850.55;126524;1093;25979;-76
2021/08/13 01:55:48;;;;;;;10.70;3.13;;;;;;;13.45;71.90;100850.55;126510;1093;22901;-76
2021/08/13 01:58:20;;;;;;;10.20;3.60;;;;;;;13.45;71.76;100847.73;126572;1093;23553;-76
2021/08/13 02:00:54;;;;;;;13.73;3.83;;;;;;;13.43;71.68;100847.45;126584;1093;25865;-77
2021/08/13 02:03:25;;;;;;;11.00;3.70;;;;;;;13.43;72.63;100855.87;126569;1093;22815;-77
2021/08/13 02:05:57;;;;;;;11.50;3.40;;;;;;;13.43;72.00;100855.87;126593;1092;22857;-77
2021/08/13 02:08:30;;;;;;;9.95;3.60;;;;;;;13.41;72.38;100863.98;126546;1093;22784;-76
2021/08/13 02:11:01;;;;;;;9.35;3.70;;;;;;;13.37;72.44;100857.80;126590;1093;27454;-77
2021/08/13 02:13:34;;;;;;;10.50;3.30;;;;;;;13.35;71.97;100853.92;126602;1093;26312;-76
2021/08/13 02:16:12;;;;;;;11.80;3.85;;;;;;;13.31;72.27;100854.13;126595;1092;22790;-76
2021/08/13 02:18:52;;;;;;;11.90;3.65;;;;;;;13.28;71.99;100849.50;126536;1093;26375;-76
2021/08/13 02:21:24;;;;;;;10.30;3.23;;;;;;;13.28;72.39;100848.72;126565;1093;22761;-77
2021/08/13 02:23:56;;;;;;;10.20;3.40;;;;;;;13.23;72.51;100852.97;126538;1093;22767;-75
2021/08/13 02:26:27;;;;;;;11.10;3.30;;;;;;;13.21;72.33;100847.08;126565;1093;23041;-77
2021/08/13 02:29:01;;;;;;;10.70;3.75;;;;;;;13.21;72.42;100843.48;126557;1093;22788;-77
2021/08/13 02:31:32;;;;;;;14.80;3.95;;;;;;;13.21;72.66;100840.69;126622;1093;22822;-76
2021/08/13 02:34:03;;;;;;;15.85;3.55;;;;;;;13.20;72.45;100839.16;126505;1093;27748;-77
2021/08/13 02:36:43;;;;;;;18.40;4.10;;;;;;;13.22;72.67;100840.19;126573;1093;22819;-77
2021/08/13 02:39:23;;;;;;;14.70;4.88;;;;;;;13.22;73.14;100837.39;126602;1092;27351;-76
2021/08/13 02:41:58;;;;;;;13.48;4.25;;;;;;;13.21;73.01;100838.66;126541;1092;24432;-76
2021/08/13 02:44:33;;;;;;;10.37;3.23;;;;;;;13.21;73.20;100830.25;126562;1093;22790;-77
2021/08/13 02:47:08;;;;;;;10.30;4.15;;;;;;;13.22;72.90;100831.78;126550;1093;22790;-76
2021/08/13 02:49:46;;;;;;;12.73;3.93;;;;;;;13.23;73.48;100833.34;126732;1093;22791;-76
2021/08/13 02:52:21;;;;;;;13.87;4.07;;;;;;;13.25;73.46;100839.24;126577;1093;22761;-76
2021/08/13 02:54:55;;;;;;;10.90;4.20;;;;;;;13.25;73.08;100822.42;126540;1093;22828;-76
2021/08/13 02:57:29;;;;;;;11.50;4.25;;;;;;;13.27;73.54;100830.34;126582;1093;22806;-76
2021/08/13 03:00:11;;;;;;;12.17;4.70;;;;;;;13.28;73.67;100832.68;126590;1092;25976;-78
2021/08/13 03:02:46;;;;;;;14.13;4.70;;;;;;;13.28;74.16;100832.68;126589;1093;22924;-77
2021/08/13 03:05:21;;;;;;;12.50;4.70;;;;;;;13.28;74.38;100832.68;126666;1093;22818;-76
2021/08/13 03:07:53;;;;;;;12.50;4.35;;;;;;;13.30;73.97;100838.58;126500;1093;26009;-77
2021/08/13 03:10:25;;;;;;;14.83;5.90;;;;;;;13.33;74.04;100834.01;126561;1093;22764;-77
2021/08/13 03:12:57;;;;;;;20.25;5.85;;;;;;;13.36;74.75;100833.84;126529;1093;22864;-77
2021/08/13 03:15:31;;;;;;;15.95;5.75;;;;;;;13.40;74.27;100834.41;126526;1093;22876;-76
2021/08/13 03:18:04;;;;;;;16.35;6.25;;;;;;;13.41;74.47;100841.55;126798;1093;24569;-78
2021/08/13 03:20:36;;;;;;;15.35;6.05;;;;;;;13.45;74.14;100838.58;126634;1093;22763;-77
2021/08/13 03:23:09;;;;;;;15.20;5.57;;;;;;;13.47;74.65;100836.81;126533;1093;24471;-76
2021/08/13 03:25:41;;;;;;;15.40;6.47;;;;;;;13.48;74.75;100832.77;126584;1092;24436;-77
2021/08/13 03:28:13;;;;;;;15.40;7.20;;;;;;;13.49;74.42;100845.52;126495;1093;22794;-77
2021/08/13 03:30:46;;;;;;;15.77;6.20;;;;;;;13.50;74.81;100844.27;126500;1093;23581;-77
2021/08/13 03:33:18;;;;;;;17.75;6.50;;;;;;;13.52;74.86;100835.36;126556;1093;25961;-77
2021/08/13 03:35:50;;;;;;;17.20;6.70;;;;;;;13.52;74.88;100836.14;126493;1093;25864;-77
2021/08/13 03:38:23;;;;;;;16.50;6.03;;;;;;;13.51;74.58;100828.22;126643;1093;23847;-77
2021/08/13 03:40:54;;;;;;;15.20;6.15;;;;;;;13.50;75.10;100827.44;126449;1093;22838;-77
2021/08/13 03:43:26;;;;;;;12.87;6.33;;;;;;;13.48;74.83;100818.73;126533;1092;22737;-77
2021/08/13 03:46:00;;;;;;;15.75;6.40;;;;;;;13.47;75.09;100822.78;126516;1091;22761;-77
2021/08/13 03:48:31;;;;;;;14.55;6.40;;;;;;;13.46;74.81;100810.03;126699;1093;22744;-77
2021/08/13 03:51:04;;;;;;;15.25;6.50;;;;;;;13.46;75.25;100807.23;126484;1093;22932;-77
2021/08/13 03:53:35;;;;;;;15.10;6.33;;;;;;;13.46;74.99;100807.23;126546;1093;22793;-76
2021/08/13 03:56:07;;;;;;;15.67;6.87;;;;;;;13.46;75.07;100803.64;126534;1093;22811;-77
2021/08/13 03:58:39;;;;;;;14.63;6.20;;;;;;;13.48;74.94;100807.52;126446;1093;22779;-77
2021/08/13 04:01:10;;;;;;;14.90;6.15;;;;;;;13.50;75.30;100807.80;126614;1093;22794;-77
2021/08/13 04:03:41;;;;;;;16.90;6.50;;;;;;;13.54;75.44;100811.18;126515;1093;22847;-76
2021/08/13 04:06:13;;;;;;;17.40;7.15;;;;;;;13.57;75.58;100807.39;126545;1093;25203;-77
2021/08/13 04:08:44;;;;;;;17.35;7.25;;;;;;;13.62;75.74;100803.91;126528;1093;22921;-77
2021/08/13 04:11:16;;;;;;;19.83;7.60;;;;;;;13.65;75.35;100802.17;126563;1093;22761;-77
2021/08/13 04:13:47;;;;;;;18.15;8.30;;;;;;;13.71;76.15;100815.03;126519;1092;22764;-77
2021/08/13 04:16:21;;;;;;;18.07;7.60;;;;;;;13.75;76.12;100815.60;126574;1093;22810;-76
2021/08/13 04:18:52;;;;;;;20.65;8.00;;;;;;;13.79;75.77;100823.81;126527;1093;22796;-77
2021/08/13 04:21:25;;;;;;;17.37;7.87;;;;;;;13.82;76.29;100819.27;126514;1093;23663;-77
2021/08/13 04:23:56;;;;;;;21.30;8.40;;;;;;;13.84;76.37;100828.75;126591;1093;25867;-77
2021/08/13 04:26:28;;;;;;;20.80;8.45;;;;;;;13.87;76.13;100824.95;126541;1092;22794;-77
2021/08/13 04:29:00;;;;;;;19.97;8.93;;;;;;;13.89;75.85;100830.06;126507;1092;27395;-76
2021/08/13 04:31:34;;;;;;;22.60;8.65;;;;;;;13.91;76.27;100828.33;126579;1092;24581;-76
2021/08/13 04:34:05;;;;;;;20.15;8.50;;;;;;;13.95;76.20;100825.30;126489;1092;24610;-76
2021/08/13 04:36:36;;;;;;;19.35;8.50;;;;;;;13.98;75.88;100827.14;126560;1093;23187;-76
2021/08/13 04:39:10;;;;;;;18.05;7.75;;;;;;;14.01;76.29;100817.77;126547;1092;25899;-76
2021/08/13 04:41:41;;;;;;;17.65;7.80;;;;;;;14.06;76.47;100822.67;126576;1093;22911;-76
2021/08/13 04:44:13;;;;;;;19.83;9.90;;;;;;;14.10;76.29;100824.02;126548;1093;22812;-76
2021/08/13 04:46:44;;;;;;;22.40;10.20;;;;;;;14.14;76.42;100827.38;126704;1093;22790;-77
2021/08/13 04:49:15;;;;;;;22.47;8.70;;;;;;;14.20;76.70;100833.07;126652;1093;28336;-77
2021/08/13 04:51:47;;;;;;;24.10;9.80;;;;;;;14.24;76.27;100831.60;126749;1093;22729;-78
2021/08/13 04:54:18;;;;;;;19.80;9.85;;;;;;;14.30;76.82;100840.91;126658;1093;22961;-77
2021/08/13 04:56:49;;;;;;;22.75;10.35;;;;;;;14.35;76.45;100839.44;126559;1092;22761;-77
2021/08/13 04:59:21;;;;;;;22.10;9.87;;;;;;;14.39;76.71;100848.42;126682;1093;22865;-76
2021/08/13 05:01:52;;;;;;;22.77;9.97;;;;;;;14.42;76.51;100841.84;126589;1093;22844;-79
2021/08/13 05:04:23;;;;;;;22.00;9.80;;;;;;;14.48;76.23;100845.48;126555;1093;23446;-79
2021/08/13 05:06:55;;;;;;;18.85;8.55;;;;;;;14.54;76.13;100852.73;126587;1093;22793;-76
2021/08/13 05:09:26;;;;;;;19.45;9.50;;;;;;;14.60;76.94;100858.41;126585;1091;22783;-77
2021/08/13 05:11:57;;;;;;;21.73;9.40;;;;;;;14.70;76.91;100864.65;126503;1093;22812;-77
2021/08/13 05:14:28;;;;;;;24.35;10.35;;;;;;;14.77;76.62;100862.20;126491;1092;22786;-76
2021/08/13 05:16:59;;;;;;;19.90;9.90;;;;;;;14.86;77.06;100870.47;126448;1092;22848;-78
2021/08/13 05:19:31;;;;;;;20.83;10.27;;;;;;;14.95;76.65;100863.92;126510;1092;22762;-77
2021/08/13 05:22:05;;;;;;;24.00;10.15;;;;;;;15.03;77.09;100865.81;126527;1093;23002;-77
2021/08/13 05:24:37;;;;;;;19.70;9.40;;;;;;;15.12;76.59;100862.08;126530;1093;23218;-77
2021/08/13 05:27:09;;;;;;;21.85;9.60;;;;;;;15.20;76.77;100849.89;126540;1093;22798;-77
2021/08/13 05:29:41;;;;;;;22.57;10.57;;;;;;;15.26;76.69;100853.53;126493;1093;22914;-76
2021/08/13 05:32:12;;;;;;;23.23;10.53;;;;;;;15.34;76.86;100856.66;126580;1093;22774;-77
2021/08/13 05:34:44;;;;;;;25.60;10.35;;;;;;;15.40;76.38;100861.08;126552;1093;23060;-76
2021/08/13 05:37:15;;;;;;;25.90;10.45;;;;;;;15.50;76.68;100869.38;126591;1093;22780;-76
2021/08/13 05:39:48;;;;;;;20.85;8.75;;;;;;;15.57;76.28;100861.25;126513;1093;23402;-76
2021/08/13 05:42:19;;;;;;;20.45;9.90;;;;;;;15.66;76.48;100857.49;126459;1092;22973;-78
2021/08/13 05:44:50;;;;;;;18.65;9.00;;;;;;;15.75;76.70;100858.06;126611;1092;26286;-80
2021/08/13 05:47:21;;;;;;;19.50;9.70;;;;;;;15.82;76.28;100854.80;127316;1092;22824;-77
2021/08/13 05:49:53;;;;;;;20.10;7.87;;;;;;;15.88;76.35;100855.62;126598;1092;24424;-77
2021/08/13 05:52:24;;;;;;;18.25;8.65;;;;;;;15.93;76.23;100857.69;126640;1093;23046;-76
2021/08/13 05:54:55;;;;;;;20.90;8.80;;;;;;;15.99;76.29;100852.11;126619;1093;22851;-77
2021/08/13 05:57:26;;;;;;;23.20;9.35;;;;;;;16.07;76.31;100853.19;126639;1093;22787;-77
2021/08/13 05:59:57;;;;;;;21.40;9.15;;;;;;;16.15;75.90;100862.70;126595;1093;22948;-77
2021/08/13 06:02:29;;;;;;;20.30;9.20;;;;;;;16.24;76.25;100856.88;126735;1092;22849;-77
2021/08/13 06:05:01;;;;;;;21.25;8.75;;;;;;;16.35;76.11;100854.11;127042;1093;27217;-77
2021/08/13 06:07:33;;;;;;;21.40;8.65;;;;;;;16.43;76.21;100857.98;127107;1093;22840;-77
2021/08/13 06:10:05;;;;;;;19.83;7.77;;;;;;;16.53;75.83;100858.59;126745;1093;22857;-76
2021/08/13 06:12:36;;;;;;;21.40;8.35;;;;;;;16.63;75.38;100871.97;127014;1093;25863;-77
2021/08/13 06:15:10;;;;;;;18.67;8.50;;;;;;;16.70;75.46;100868.66;126927;1092;22765;-78
2021/08/13 06:17:47;;;;;;;19.43;8.07;;;;;;;16.83;75.20;100859.73;127127;1093;22769;-78
2021/08/13 06:20:22;;;;;;;22.95;8.45;;;;;;;16.91;75.19;100870.02;126860;1093;26223;-76
2021/08/13 06:22:54;;;;;;;19.45;7.55;;;;;;;17.01;75.46;100867.73;126659;1092;22827;-77
2021/08/13 06:25:26;;;;;;;17.97;7.70;;;;;;;17.15;75.35;100863.94;126498;1091;23926;-78
2021/08/13 06:27:57;;;;;;;17.17;7.47;;;;;;;17.28;75.30;100875.48;126555;1092;22760;-77
2021/08/13 06:30:28;;;;;;;18.85;7.65;;;;;;;17.40;75.57;100868.58;126536;1093;22802;-77
2021/08/13 06:33:01;;;;;;;18.47;6.93;;;;;;;17.54;74.88;100861.19;126932;1093;22872;-77
2021/08/13 06:35:32;;;;;;;16.50;7.10;;;;;;;17.64;74.92;100871.72;127034;1093;27137;-77
2021/08/13 06:38:04;;;;;;;19.70;6.95;;;;;;;17.76;74.68;100875.30;126633;1093;22762;-77
2021/08/13 06:40:35;;;;;;;19.05;6.85;;;;;;;17.86;74.61;100865.28;126632;1092;22925;-77
2021/08/13 06:43:06;;;;;;;20.65;8.00;;;;;;;17.99;74.70;100867.58;126552;1093;25874;-77
2021/08/13 06:45:39;;;;;;;15.50;5.70;;;;;;;18.10;74.73;100873.23;126675;1092;22770;-77
2021/08/13 06:48:11;;;;;;;14.30;6.00;;;;;;;18.21;74.41;100868.31;126724;1091;22776;-77
2021/08/13 06:50:42;;;;;;;15.95;5.90;;;;;;;18.30;74.15;100870.88;126700;1093;22791;-77
2021/08/13 06:53:13;;;;;;;17.05;5.20;;;;;;;18.40;74.21;100866.48;126720;1093;26850;-78
2021/08/13 06:55:46;;;;;;;16.37;6.67;;;;;;;18.51;74.04;100869.31;126696;1093;22762;-77
2021/08/13 06:58:17;;;;;;;16.15;6.10;;;;;;;18.63;74.04;100867.20;126777;1093;22798;-77
2021/08/13 07:00:49;;;;;;;15.03;5.57;;;;;;;18.76;73.99;100860.98;126667;1092;22807;-77
2021/08/13 07:03:20;;;;;;;13.70;5.33;;;;;;;18.89;73.71;100861.18;126757;1092;27134;-77
2021/08/13 07:05:52;;;;;;;13.25;4.95;;;;;;;18.97;73.36;100865.77;127162;1092;22762;-77
2021/08/13 07:08:24;;;;;;;11.83;5.05;;;;;;;19.07;72.68;100869.05;126730;1093;22761;-78
2021/08/13 07:11:00;;;;;;;17.20;5.33;;;;;;;19.18;73.16;100871.83;126798;1092;22849;-77
2021/08/13 07:13:32;;;;;;;11.70;4.33;;;;;;;19.28;72.38;100873.05;126847;1093;22824;-78
2021/08/13 07:16:04;;;;;;;15.23;4.90;;;;;;;19.40;72.29;100873.76;126756;1093;22798;-78
2021/08/13 07:18:37;;;;;;;16.60;4.40;;;;;;;19.51;72.23;100870.86;126759;1093;23590;-81
2021/08/13 07:21:09;;;;;;;14.20;4.25;;;;;;;19.63;71.78;100870.25;127349;1092;25777;-80
2021/08/13 07:23:41;;;;;;;22.13;5.13;;;;;;;19.73;71.64;100867.84;126640;1093;25922;-80
2021/08/13 07:26:13;;;;;;;17.30;4.75;;;;;;;19.86;71.85;100862.33;126665;1093;22799;-79
2021/08/13 07:28:46;;;;;;;14.73;4.93;;;;;;;19.99;71.31;100863.22;127189;1093;25890;-79
2021/08/13 07:31:18;;;;;;;14.57;4.40;;;;;;;20.12;71.36;100869.03;126944;1093;22854;-80
2021/08/13 07:33:49;;;;;;;12.08;4.53;;;;;;;20.25;70.89;100854.24;126618;1092;22863;-79
2021/08/13 07:36:25;;;;;;;12.70;3.80;;;;;;;20.29;70.44;100863.22;126687;1092;26264;-79
2021/08/13 07:38:57;;;;;;;16.63;4.65;;;;;;;20.35;70.71;100858.25;126705;1093;22772;-80
2021/08/13 07:41:28;;;;;;;15.90;4.70;;;;;;;20.46;70.48;100860.20;126931;1091;26277;-80
2021/08/13 07:43:59;;;;;;;14.10;4.55;;;;;;;20.57;70.28;100855.15;126956;1093;22741;-80
2021/08/13 07:46:32;;;;;;;16.03;4.68;;;;;;;20.69;69.73;100853.70;126993;1093;22971;-81
2021/08/13 07:49:04;;;;;;;15.53;5.10;;;;;;;20.82;69.18;100853.03;127073;1093;22772;-81
2021/08/13 07:51:36;;;;;;;11.95;3.93;;;;;;;20.94;69.17;100860.09;127506;1092;22717;-80
2021/08/13 07:54:07;;;;;;;12.70;3.78;;;;;;;21.03;69.22;100851.23;127089;1092;22857;-80
2021/08/13 07:56:39;;;;;;;11.88;3.33;;;;;;;21.14;68.96;100856.77;127500;1093;22875;-80
2021/08/13 07:59:12;;;;;;;11.60;3.75;;;;;;;21.27;68.50;100859.64;127703;1093;23578;-79
2021/08/13 08:01:45;;;;;;;10.63;3.38;;;;;;;21.37;68.38;100845.84;127199;1093;22784;-79
2021/08/13 08:04:17;;;;;;;13.38;3.55;;;;;;;21.50;68.34;100843.80;127015;1093;22770;-80
2021/08/13 08:06:49;;;;;;;12.03;3.40;;;;;;;21.59;67.75;100836.95;127173;1093;27344;-80
2021/08/13 08:09:20;;;;;;;12.53;3.10;;;;;;;21.69;67.72;100838.84;127104;1093;25758;-81
2021/08/13 08:11:52;;;;;;;13.95;3.28;;;;;;;21.80;67.75;100854.16;127103;1092;22771;-79
2021/08/13 08:14:24;;;;;;;10.93;3.13;;;;;;;21.94;67.23;100844.38;127270;1093;25883;-79
2021/08/13 08:16:55;;;;;;;12.28;3.23;;;;;;;22.03;66.53;100844.74;127882;1091;22802;-80
2021/08/13 08:19:26;;;;;;;10.68;3.85;;;;;;;22.19;66.33;100837.97;127216;1093;23644;-81
2021/08/13 08:21:58;;;;;;;10.20;2.45;;;;;;;22.34;65.27;100835.36;128008;1093;26371;-80
2021/08/13 08:24:29;;;;;;;9.83;2.83;;;;;;;22.42;65.30;100824.08;127802;1093;22802;-80
2021/08/13 08:27:01;;;;;;;9.15;3.18;;;;;;;22.52;64.75;100831.63;127719;1093;22775;-81
2021/08/13 08:29:32;;;;;;;11.55;3.60;;;;;;;22.59;64.87;100835.15;127243;1092;22774;-80
2021/08/13 08:32:03;;;;;;;13.90;3.20;;;;;;;22.66;64.46;100838.09;127205;1092;22871;-80
2021/08/13 08:34:35;;;;;;;11.27;3.43;;;;;;;22.79;64.60;100840.15;127611;1093;22799;-81
2021/08/13 08:37:09;;;;;;;11.20;3.50;;;;;;;22.90;64.09;100843.54;127787;1092;22858;-81
2021/08/13 08:39:43;;;;;;;8.80;3.28;;;;;;;23.03;63.85;100839.89;127710;1093;23280;-80
2021/08/13 08:42:20;;;;;;;12.90;4.45;;;;;;;23.10;63.46;100844.90;127903;1093;23035;-80
2021/08/13 08:44:52;;;;;;;8.90;3.83;;;;;;;23.16;62.69;100845.53;126574;1093;23272;-78
2021/08/13 08:47:25;;;;;;;12.45;4.90;;;;;;;23.21;62.10;100841.80;126804;1093;26279;-77
2021/08/13 08:49:59;;;;;;;12.58;4.03;;;;;;;23.26;62.52;100852.28;126683;1092;25871;-78
2021/08/13 08:52:31;;;;;;;10.23;3.68;;;;;;;23.35;62.47;100843.31;126752;1093;22763;-77
2021/08/13 08:55:03;;;;;;;12.00;3.30;;;;;;;23.44;61.99;100844.92;126694;1093;22763;-78
2021/08/13 08:57:39;;;;;;;7.73;2.50;;;;;;;23.55;61.54;100848.25;126648;1092;22796;-78
2021/08/13 09:00:12;;;;;;;9.15;2.68;;;;;;;23.67;61.21;100846.66;126700;1093;22790;-77
2021/08/13 09:02:53;;;;;;;11.80;2.53;;;;;;;23.80;61.44;100851.52;126644;1092;23016;-78
2021/08/13 09:05:27;;;;;;;10.10;3.10;;;;;;;23.93;61.01;100846.52;126802;1092;25871;-79
2021/08/13 09:07:58;;;;;;;9.13;2.33;;;;;;;24.03;58.77;100858.98;126657;1093;22839;-79
2021/08/13 09:10:30;;;;;;;12.18;2.23;;;;;;;24.07;59.64;100847.98;126708;1093;23418;-79
2021/08/13 09:13:06;;;;;;;9.20;2.38;;;;;;;24.18;59.69;100834.73;126885;1093;22768;-78
2021/08/13 09:15:40;;;;;;;5.90;1.68;;;;;;;24.26;58.16;100833.47;126820;1093;22854;-78
2021/08/13 09:18:17;;;;;;;8.37;2.30;;;;;;;24.33;58.32;100835.62;126754;1093;22783;-80
2021/08/13 09:20:52;;;;;;;6.05;1.75;;;;;;;24.41;57.53;100832.80;126708;1093;25868;-80
2021/08/13 09:23:38;;;;;;;6.47;1.93;;;;;;;24.46;57.69;100835.48;126667;1093;22863;-80
2021/08/13 09:26:12;;;;;;;7.58;1.98;;;;;;;24.57;57.39;100838.03;126696;1092;22794;-80
2021/08/13 09:28:50;;;;;;;6.95;1.63;;;;;;;24.70;56.06;100843.63;126664;1093;22853;-80
2021/08/13 09:31:24;;;;;;;7.80;2.10;;;;;;;24.74;55.82;100841.20;127161;1093;22845;-79
2021/08/13 09:33:57;;;;;;;7.18;1.90;;;;;;;24.80;56.08;100827.52;127028;1092;22728;-80
2021/08/13 09:36:32;;;;;;;7.60;2.55;;;;;;;24.85;55.88;100835.14;127231;1092;22768;-79
2021/08/13 09:39:09;;;;;;;8.53;2.33;;;;;;;24.91;55.13;100834.22;127128;1093;26005;-79
2021/08/13 09:41:50;;;;;;;11.03;1.80;;;;;;;24.97;54.61;100835.58;126917;1093;22764;-78
2021/08/13 09:44:27;;;;;;;6.28;1.95;;;;;;;25.00;54.32;100836.52;126669;1092;22761;-78
2021/08/13 09:47:01;;;;;;;6.03;1.88;;;;;;;25.04;54.36;100842.66;126552;1093;23542;-77
2021/08/13 09:49:33;;;;;;;8.18;2.70;;;;;;;25.12;53.64;100840.58;126613;1093;22795;-77
2021/08/13 09:52:15;;;;;;;7.25;2.10;;;;;;;25.16;53.29;100847.43;126576;1093;22876;-77
2021/08/13 09:54:49;;;;;;;5.58;1.70;;;;;;;25.24;52.28;100847.47;126837;1093;22858;-78
2021/08/13 09:57:21;;;;;;;6.78;2.00;;;;;;;25.32;52.51;100833.96;126580;1092;22790;-78
2021/08/13 10:00:03;;;;;;;8.48;1.80;;;;;;;25.39;51.97;100830.34;126551;1092;22791;-78
2021/08/13 10:02:38;;;;;;;7.63;2.03;;;;;;;25.40;51.42;100826.16;126575;1092;22745;-77
2021/08/13 10:05:23;;;;;;;8.70;2.05;;;;;;;25.47;51.44;100820.47;126801;1093;22896;-77
2021/08/13 10:07:56;;;;;;;9.83;1.93;;;;;;;25.51;51.21;100822.97;126602;1093;22787;-78
2021/08/13 10:10:29;;;;;;;9.15;2.35;;;;;;;25.54;51.29;100821.81;126572;1092;22775;-77
2021/08/13 10:13:01;;;;;;;7.30;2.15;;;;;;;25.59;51.62;100810.22;126636;1093;24325;-78
2021/08/13 10:15:36;;;;;;;7.25;1.83;;;;;;;25.67;51.56;100821.65;126695;1093;25983;-77
2021/08/13 10:18:10;;;;;;;8.68;2.40;;;;;;;25.76;50.35;100820.32;126738;1093;22787;-78
2021/08/13 10:20:42;;;;;;;8.93;1.75;;;;;;;25.80;50.23;100807.17;126695;1092;22783;-77
2021/08/13 10:23:15;;;;;;;6.18;2.10;;;;;;;25.85;50.20;100814.78;126728;1092;26256;-78
2021/08/13 10:25:46;;;;;;;5.47;1.80;;;;;;;25.96;50.19;100807.91;126900;1093;22789;-78
2021/08/13 10:28:21;;;;;;;6.90;1.80;;;;;;;26.08;50.22;100814.78;126899;1093;22707;-78
2021/08/13 10:30:55;;;;;;;5.40;1.90;;;;;;;26.17;49.53;100806.39;126924;1093;27247;-79
2021/08/13 10:33:27;;;;;;;5.90;1.85;;;;;;;26.23;50.21;100798.37;126705;1092;22791;-80
2021/08/13 10:36:02;;;;;;;8.73;1.80;;;;;;;26.30;49.04;100809.02;126626;1093;26251;-79
2021/08/13 10:38:36;;;;;;;5.48;1.98;;;;;;;26.37;48.88;100799.66;126700;1092;24292;-78
2021/08/13 10:41:10;;;;;;;5.70;1.73;;;;;;;26.38;49.00;100798.31;126710;1092;24314;-78
2021/08/13 10:43:45;;;;;;;7.60;2.00;;;;;;;26.46;48.52;100796.18;126599;1093;26238;-78
2021/08/13 10:46:20;;;;;;;6.60;1.95;;;;;;;26.51;47.65;100802.30;126737;1093;22779;-78
2021/08/13 10:48:54;;;;;;;7.63;2.03;;;;;;;26.57;48.15;100797.13;126943;1092;27608;-78
2021/08/13 10:51:33;;;;;;;8.15;1.95;;;;;;;26.59;47.50;100800.17;126759;1093;23402;-78
2021/08/13 10:54:09;;;;;;;5.70;1.93;;;;;;;26.64;47.95;100790.59;126999;1093;26283;-78
2021/08/13 10:56:42;;;;;;;7.45;1.53;;;;;;;26.73;47.52;100792.89;128674;1093;22802;-78
2021/08/13 10:59:14;;;;;;;7.63;2.40;;;;;;;26.75;47.77;100793.06;126746;1093;26280;-78
2021/08/13 11:02:12;;;;;;;7.73;1.85;;;;;;;26.76;46.95;100795.34;126939;1093;22787;-79
2021/08/13 11:04:45;;;;;;;9.63;1.90;;;;;;;26.78;46.78;100789.02;126983;1092;22758;-78
2021/08/13 11:07:37;;;;;;;9.35;2.23;;;;;;;26.79;45.82;100781.97;127037;1093;22774;-78
2021/08/13 11:10:45;;;;;;;10.78;2.10;;;;;;;26.76;46.16;100785.98;127039;1093;27486;-79
2021/08/13 11:13:18;;;;;;;5.63;1.53;;;;;;;26.82;46.28;100770.11;127259;1094;22850;-79
2021/08/13 11:15:50;;;;;;;5.45;1.70;;;;;;;26.88;46.13;100776.38;127117;1095;28628;-78
2021/08/13 11:18:38;;;;;;;7.55;2.10;;;;;;;26.90;45.29;100772.95;127130;1093;25893;-79
2021/08/13 11:21:11;;;;;;;9.53;1.93;;;;;;;27.01;46.49;100772.48;126968;1095;22776;-79
2021/08/13 11:23:59;;;;;;;8.20;2.30;;;;;;;27.07;45.50;100776.66;126513;1096;22847;-79
2021/08/13 11:27:05;;;;;;;6.55;1.70;;;;;;;27.15;45.81;100776.59;126608;1093;22901;-79
2021/08/13 11:29:48;;;;;;;6.60;2.10;;;;;;;27.25;45.80;100758.19;126447;1096;22755;-79
2021/08/13 11:32:32;;;;;;;6.60;2.03;;;;;;;27.34;45.66;100764.62;126477;1096;24455;-78
2021/08/13 11:35:07;;;;;;;6.88;2.10;;;;;;;27.41;45.31;100760.98;126467;1096;22781;-78
2021/08/13 11:38:00;;;;;;;5.28;1.48;;;;;;;27.44;45.07;100754.08;126794;1095;22977;-79
2021/08/13 11:40:49;;;;;;;8.25;1.68;;;;;;;27.46;45.07;100763.59;126435;1095;24387;-79
2021/08/13 11:43:22;;;;;;;8.48;1.95;;;;;;;27.52;44.23;100760.52;127166;1095;22894;-79